createdAt,value
2016-10-08T00:00:36.862Z,0
2016-10-08T00:01:36.850Z,0
2016-10-08T00:02:36.838Z,0
2016-10-08T00:03:37.031Z,0
2016-10-08T00:04:36.820Z,0
2016-10-08T00:05:36.816Z,0
2016-10-08T00:06:36.806Z,0
2016-10-08T00:07:36.787Z,0
2016-10-08T00:08:36.854Z,0
2016-10-08T00:09:36.758Z,0
2016-10-08T00:10:36.759Z,0
2016-10-08T00:11:36.751Z,0
2016-10-08T00:12:36.748Z,0
2016-10-08T00:13:36.779Z,0
2016-10-08T00:14:36.717Z,0
2016-10-08T00:15:36.698Z,0
2016-10-08T00:16:36.696Z,0
2016-10-08T00:17:36.670Z,0
2016-10-08T00:18:36.665Z,0
2016-10-08T00:19:36.655Z,0
2016-10-08T00:20:36.648Z,0
2016-10-08T00:21:36.956Z,0
2016-10-08T00:22:36.631Z,0
2016-10-08T00:23:36.696Z,0
2016-10-08T00:24:36.602Z,0
2016-10-08T00:25:36.600Z,0
2016-10-08T00:26:36.579Z,0
2016-10-08T00:27:36.901Z,0
2016-10-08T00:28:36.557Z,0
2016-10-08T00:29:36.541Z,0
2016-10-08T00:30:36.531Z,0
2016-10-08T00:31:36.524Z,0
2016-10-08T00:32:36.610Z,0
2016-10-08T00:33:36.507Z,0
2016-10-08T00:34:36.481Z,0
2016-10-08T00:35:36.474Z,0
2016-10-08T00:36:36.462Z,0
2016-10-08T00:37:36.454Z,0
2016-10-08T00:38:36.444Z,0
2016-10-08T00:39:36.428Z,0
2016-10-08T00:40:36.409Z,0
2016-10-08T00:41:36.402Z,0
2016-10-08T00:42:36.399Z,0
2016-10-08T00:43:36.378Z,0
2016-10-08T00:44:36.385Z,0
2016-10-08T00:45:36.368Z,0
2016-10-08T00:46:36.359Z,0
2016-10-08T00:47:36.356Z,0
2016-10-08T00:48:36.321Z,0
2016-10-08T00:49:36.318Z,0
2016-10-08T00:50:36.335Z,0
2016-10-08T00:51:36.329Z,0
2016-10-08T00:52:36.283Z,0
2016-10-08T00:53:36.265Z,0
2016-10-08T00:54:36.286Z,0
2016-10-08T00:55:36.256Z,0
2016-10-08T00:56:36.235Z,0
2016-10-08T00:57:36.224Z,0
2016-10-08T00:58:36.260Z,0
2016-10-08T00:59:36.194Z,0
2016-10-08T01:00:36.191Z,0
2016-10-08T01:01:36.176Z,0
2016-10-08T01:02:36.174Z,0
2016-10-08T01:03:36.175Z,0
2016-10-08T01:04:36.153Z,0
2016-10-08T01:05:36.126Z,0
2016-10-08T01:06:36.112Z,0
2016-10-08T01:07:36.244Z,0
2016-10-08T01:08:36.094Z,0
2016-10-08T01:09:36.082Z,0
2016-10-08T01:10:36.395Z,0
2016-10-08T01:11:36.095Z,0
2016-10-08T01:12:36.077Z,0
2016-10-08T01:13:36.080Z,0
2016-10-08T01:14:36.088Z,0
2016-10-08T01:15:36.124Z,0
2016-10-08T01:16:36.079Z,0
2016-10-08T01:17:36.005Z,0
2016-10-08T01:18:36.018Z,0
2016-10-08T01:19:36.022Z,0
2016-10-08T01:20:36.023Z,0
2016-10-08T01:21:36.033Z,0
2016-10-08T01:22:36.040Z,0
2016-10-08T01:23:36.029Z,0
2016-10-08T01:24:36.000Z,0
2016-10-08T01:25:35.999Z,0
2016-10-08T01:26:36.005Z,0
2016-10-08T01:27:36.009Z,0
2016-10-08T01:28:35.988Z,0
2016-10-08T01:29:35.921Z,0
2016-10-08T01:30:36.135Z,0
2016-10-08T01:31:35.965Z,0
2016-10-08T01:32:35.964Z,0
2016-10-08T01:33:35.997Z,0
2016-10-08T01:34:35.974Z,0
2016-10-08T01:35:35.987Z,0
2016-10-08T01:36:35.965Z,0
2016-10-08T01:37:35.937Z,0
2016-10-08T01:38:35.957Z,0
2016-10-08T01:39:35.938Z,0
2016-10-08T01:40:35.946Z,0
2016-10-08T01:41:35.930Z,0
2016-10-08T01:42:35.862Z,0
2016-10-08T01:43:35.914Z,0
2016-10-08T01:44:35.879Z,0
2016-10-08T01:45:35.877Z,0
2016-10-08T01:46:35.894Z,0
2016-10-08T01:47:35.912Z,0
2016-10-08T01:48:35.899Z,0
2016-10-08T01:49:35.904Z,0
2016-10-08T01:50:35.915Z,0
2016-10-08T01:51:35.774Z,0
2016-10-08T01:52:35.762Z,0
2016-10-08T01:53:35.878Z,0
2016-10-08T01:54:35.840Z,0
2016-10-08T01:55:35.862Z,0
2016-10-08T01:56:35.710Z,0
2016-10-08T01:57:35.707Z,0
2016-10-08T01:58:35.724Z,0
2016-10-08T01:59:35.730Z,0
2016-10-08T02:00:35.718Z,0
2016-10-08T02:01:35.725Z,0
2016-10-08T02:02:35.688Z,0
2016-10-08T02:03:35.552Z,0
2016-10-08T02:04:35.557Z,0
2016-10-08T02:05:35.534Z,0
2016-10-08T02:06:35.681Z,0
2016-10-08T02:07:35.526Z,0
2016-10-08T02:08:35.537Z,0
2016-10-08T02:09:35.548Z,0
2016-10-08T02:10:35.393Z,0
2016-10-08T02:11:35.387Z,0
2016-10-08T02:12:35.392Z,0
2016-10-08T02:13:35.355Z,0
2016-10-08T02:14:35.394Z,0
2016-10-08T02:15:35.383Z,0
2016-10-08T02:16:35.337Z,0
2016-10-08T02:17:35.322Z,0
2016-10-08T02:18:35.287Z,0
2016-10-08T02:19:35.294Z,0
2016-10-08T02:20:35.289Z,0
2016-10-08T02:21:35.256Z,0
2016-10-08T02:22:35.480Z,0
2016-10-08T02:23:35.252Z,0
2016-10-08T02:24:35.231Z,0
2016-10-08T02:25:35.210Z,0
2016-10-08T02:26:35.191Z,0
2016-10-08T02:27:35.191Z,0
2016-10-08T02:28:35.179Z,0
2016-10-08T02:29:35.160Z,0
2016-10-08T02:30:35.146Z,0
2016-10-08T02:31:35.133Z,0
2016-10-08T02:32:35.124Z,0
2016-10-08T02:33:35.113Z,0
2016-10-08T02:34:35.097Z,0
2016-10-08T02:35:35.089Z,0
2016-10-08T02:36:35.075Z,0
2016-10-08T02:37:35.059Z,0
2016-10-08T02:38:35.063Z,0
2016-10-08T02:39:35.034Z,0
2016-10-08T02:40:35.025Z,0
2016-10-08T02:41:35.014Z,0
2016-10-08T02:42:34.993Z,0
2016-10-08T02:43:34.991Z,0
2016-10-08T02:44:34.981Z,0
2016-10-08T02:45:34.963Z,0
2016-10-08T02:46:34.952Z,0
2016-10-08T02:47:34.958Z,0
2016-10-08T02:48:34.928Z,0
2016-10-08T02:49:34.922Z,0
2016-10-08T02:50:34.897Z,0
2016-10-08T02:51:34.889Z,0
2016-10-08T02:52:35.205Z,0
2016-10-08T02:53:34.864Z,0
2016-10-08T02:54:35.170Z,0
2016-10-08T02:55:34.835Z,0
2016-10-08T02:56:34.819Z,0
2016-10-08T02:57:34.811Z,0
2016-10-08T02:58:34.792Z,0
2016-10-08T02:59:34.794Z,0
2016-10-08T03:00:34.768Z,0
2016-10-08T03:01:34.773Z,0
2016-10-08T03:02:34.752Z,0
2016-10-08T03:03:34.737Z,0
2016-10-08T03:04:34.731Z,0
2016-10-08T03:05:34.709Z,0
2016-10-08T03:06:34.701Z,0
2016-10-08T03:07:34.683Z,0
2016-10-08T03:08:34.681Z,0
2016-10-08T03:09:34.668Z,0
2016-10-08T03:10:34.667Z,0
2016-10-08T03:11:34.635Z,0
2016-10-08T03:12:34.655Z,0
2016-10-08T03:13:34.612Z,0
2016-10-08T03:14:34.601Z,0
2016-10-08T03:15:34.613Z,0
2016-10-08T03:16:34.575Z,0
2016-10-08T03:17:34.573Z,0
2016-10-08T03:18:34.754Z,0
2016-10-08T03:19:34.556Z,0
2016-10-08T03:20:34.743Z,0
2016-10-08T03:21:34.505Z,0
2016-10-08T03:22:34.521Z,0
2016-10-08T03:23:34.523Z,0
2016-10-08T03:24:34.479Z,0
2016-10-08T03:25:34.485Z,0
2016-10-08T03:26:34.443Z,0
2016-10-08T03:27:34.435Z,0
2016-10-08T03:28:34.424Z,0
2016-10-08T03:29:35.054Z,0
2016-10-08T03:30:34.404Z,0
2016-10-08T03:31:34.378Z,0
2016-10-08T03:32:34.472Z,0
2016-10-08T03:33:34.364Z,0
2016-10-08T03:34:34.343Z,0
2016-10-08T03:35:34.336Z,0
2016-10-08T03:36:34.318Z,0
2016-10-08T03:37:34.298Z,0
2016-10-08T03:38:34.298Z,0
2016-10-08T03:39:34.331Z,0
2016-10-08T03:40:34.591Z,0
2016-10-08T03:41:34.581Z,0
2016-10-08T03:42:34.251Z,0
2016-10-08T03:43:34.554Z,0
2016-10-08T03:44:34.227Z,0
2016-10-08T03:45:34.204Z,0
2016-10-08T03:46:34.205Z,0
2016-10-08T03:47:34.170Z,0
2016-10-08T03:48:34.171Z,0
2016-10-08T03:49:34.151Z,0
2016-10-08T03:50:34.140Z,0
2016-10-08T03:51:34.134Z,0
2016-10-08T03:52:34.112Z,0
2016-10-08T03:53:34.096Z,0
2016-10-08T03:54:34.088Z,0
2016-10-08T03:55:34.066Z,0
2016-10-08T03:56:34.069Z,0
2016-10-08T03:57:34.041Z,0
2016-10-08T03:58:34.036Z,0
2016-10-08T03:59:34.021Z,0
2016-10-08T04:00:34.027Z,0
2016-10-08T04:01:34.005Z,0
2016-10-08T04:02:33.995Z,0
2016-10-08T04:03:33.975Z,0
2016-10-08T04:04:33.959Z,0
2016-10-08T04:05:33.942Z,0
2016-10-08T04:06:33.939Z,0
2016-10-08T04:07:33.921Z,0
2016-10-08T04:08:33.910Z,0
2016-10-08T04:09:33.918Z,0
2016-10-08T04:10:33.883Z,0
2016-10-08T04:11:33.900Z,0
2016-10-08T04:12:33.873Z,0
2016-10-08T04:13:33.846Z,0
2016-10-08T04:14:33.855Z,0
2016-10-08T04:15:34.137Z,0
2016-10-08T04:16:33.807Z,0
2016-10-08T04:17:33.811Z,0
2016-10-08T04:18:33.807Z,0
2016-10-08T04:19:34.088Z,0
2016-10-08T04:20:34.069Z,0
2016-10-08T04:21:33.937Z,0
2016-10-08T04:22:33.950Z,0
2016-10-08T04:23:33.810Z,0
2016-10-08T04:24:33.814Z,0
2016-10-08T04:25:33.762Z,0
2016-10-08T04:26:34.016Z,0
2016-10-08T04:27:33.682Z,0
2016-10-08T04:28:33.723Z,0
2016-10-08T04:29:33.687Z,0
2016-10-08T04:30:34.002Z,0
2016-10-08T04:31:33.709Z,0
2016-10-08T04:32:34.176Z,0
2016-10-08T04:33:33.665Z,0
2016-10-08T04:34:33.724Z,0
2016-10-08T04:35:33.666Z,0
2016-10-08T04:36:33.686Z,0
2016-10-08T04:37:33.692Z,0
2016-10-08T04:38:33.701Z,0
2016-10-08T04:39:33.601Z,0
2016-10-08T04:40:33.604Z,0
2016-10-08T04:41:33.616Z,0
2016-10-08T04:42:33.626Z,0
2016-10-08T04:43:33.630Z,0
2016-10-08T04:44:33.635Z,0
2016-10-08T04:45:33.569Z,0
2016-10-08T04:46:33.586Z,0
2016-10-08T04:47:33.585Z,0
2016-10-08T04:48:33.599Z,0
2016-10-08T04:49:33.595Z,0
2016-10-08T04:50:33.681Z,0
2016-10-08T04:51:33.513Z,0
2016-10-08T04:52:33.523Z,0
2016-10-08T04:53:33.524Z,0
2016-10-08T04:54:33.534Z,0
2016-10-08T04:55:33.539Z,0
2016-10-08T04:56:33.549Z,4
2016-10-08T04:57:33.564Z,4
2016-10-08T04:58:33.555Z,0
2016-10-08T04:59:33.406Z,0
2016-10-08T05:00:33.532Z,4
2016-10-08T05:01:33.382Z,4
2016-10-08T05:02:33.374Z,8
2016-10-08T05:03:33.361Z,4
2016-10-08T05:04:33.359Z,8
2016-10-08T05:05:33.507Z,12
2016-10-08T05:06:33.371Z,12
2016-10-08T05:07:33.365Z,8
2016-10-08T05:08:33.354Z,8
2016-10-08T05:09:33.542Z,12
2016-10-08T05:10:33.205Z,12
2016-10-08T05:11:33.214Z,20
2016-10-08T05:12:33.558Z,20
2016-10-08T05:13:33.190Z,24
2016-10-08T05:14:33.191Z,16
2016-10-08T05:15:33.063Z,12
2016-10-08T05:16:33.036Z,20
2016-10-08T05:17:33.027Z,24
2016-10-08T05:18:33.018Z,28
2016-10-08T05:19:33.004Z,28
2016-10-08T05:20:33.001Z,32
2016-10-08T05:21:32.970Z,48
2016-10-08T05:22:33.406Z,64
2016-10-08T05:23:32.965Z,80
2016-10-08T05:24:32.966Z,72
2016-10-08T05:25:32.927Z,76
2016-10-08T05:26:32.919Z,104
2016-10-08T05:27:32.902Z,124
2016-10-08T05:28:32.892Z,152
2016-10-08T05:29:32.885Z,192
2016-10-08T05:30:32.867Z,224
2016-10-08T05:31:32.865Z,200
2016-10-08T05:32:32.843Z,176
2016-10-08T05:33:32.840Z,144
2016-10-08T05:34:32.825Z,132
2016-10-08T05:35:33.246Z,140
2016-10-08T05:36:32.812Z,160
2016-10-08T05:37:32.784Z,200
2016-10-08T05:38:32.773Z,232
2016-10-08T05:39:32.759Z,220
2016-10-08T05:40:33.069Z,268
2016-10-08T05:41:33.164Z,292
2016-10-08T05:42:32.720Z,260
2016-10-08T05:43:32.716Z,224
2016-10-08T05:44:32.693Z,224
2016-10-08T05:45:32.677Z,236
2016-10-08T05:46:32.671Z,264
2016-10-08T05:47:32.975Z,288
2016-10-08T05:48:32.642Z,328
2016-10-08T05:49:32.627Z,304
2016-10-08T05:50:32.613Z,272
2016-10-08T05:51:32.611Z,216
2016-10-08T05:52:32.595Z,184
2016-10-08T05:53:32.574Z,196
2016-10-08T05:54:32.591Z,320
2016-10-08T05:55:32.582Z,448
2016-10-08T05:56:32.542Z,488
2016-10-08T05:57:32.545Z,428
2016-10-08T05:58:32.828Z,336
2016-10-08T05:59:32.512Z,276
2016-10-08T06:00:32.491Z,268
2016-10-08T06:01:32.480Z,268
2016-10-08T06:02:32.457Z,276
2016-10-08T06:03:32.452Z,276
2016-10-08T06:04:32.438Z,324
2016-10-08T06:05:32.436Z,356
2016-10-08T06:06:32.408Z,572
2016-10-08T06:07:32.399Z,828
2016-10-08T06:08:32.391Z,700
2016-10-08T06:09:32.398Z,748
2016-10-08T06:10:32.370Z,616
2016-10-08T06:11:32.362Z,764
2016-10-08T06:12:32.344Z,732
2016-10-08T06:13:32.331Z,984
2016-10-08T06:14:32.312Z,1204
2016-10-08T06:15:32.306Z,1244
2016-10-08T06:16:32.287Z,1192
2016-10-08T06:17:32.277Z,1196
2016-10-08T06:18:32.266Z,1272
2016-10-08T06:19:32.266Z,1772
2016-10-08T06:20:32.300Z,2020
2016-10-08T06:21:32.235Z,2048
2016-10-08T06:22:32.219Z,2444
2016-10-08T06:23:32.228Z,2540
2016-10-08T06:24:32.196Z,2624
2016-10-08T06:25:32.224Z,2080
2016-10-08T06:26:32.169Z,1836
2016-10-08T06:27:32.152Z,1276
2016-10-08T06:28:32.521Z,1204
2016-10-08T06:29:34.938Z,1152
2016-10-08T06:30:33.008Z,1052
2016-10-08T06:31:32.695Z,912
2016-10-08T06:32:33.242Z,1096
2016-10-08T06:34:32.398Z,1636
2016-10-08T06:35:32.379Z,1584
2016-10-08T06:36:32.046Z,1588
2016-10-08T06:37:32.040Z,1300
2016-10-08T06:38:32.013Z,928
2016-10-08T06:39:32.037Z,900
2016-10-08T06:40:31.986Z,1016
2016-10-08T06:41:31.979Z,964
2016-10-08T06:42:31.973Z,996
2016-10-08T06:43:31.950Z,936
2016-10-08T06:44:32.515Z,904
2016-10-08T06:45:31.945Z,948
2016-10-08T06:46:31.930Z,1000
2016-10-08T06:47:31.906Z,1080
2016-10-08T06:48:31.918Z,820
2016-10-08T06:49:31.896Z,888
2016-10-08T06:50:31.871Z,980
2016-10-08T06:51:31.914Z,884
2016-10-08T06:52:31.856Z,716
2016-10-08T06:53:31.834Z,772
2016-10-08T06:54:31.823Z,596
2016-10-08T06:55:31.814Z,476
2016-10-08T06:56:31.796Z,460
2016-10-08T06:57:32.097Z,492
2016-10-08T06:58:31.764Z,468
2016-10-08T06:59:31.760Z,644
2016-10-08T07:00:31.767Z,768
2016-10-08T07:01:31.730Z,928
2016-10-08T07:02:31.724Z,1100
2016-10-08T07:03:32.035Z,876
2016-10-08T07:04:31.688Z,868
2016-10-08T07:05:31.687Z,1096
2016-10-08T07:06:31.668Z,1316
2016-10-08T07:07:31.984Z,1300
2016-10-08T07:08:31.643Z,1552
2016-10-08T07:09:31.630Z,1400
2016-10-08T07:10:31.632Z,1376
2016-10-08T07:11:31.605Z,1280
2016-10-08T07:12:31.594Z,928
2016-10-08T07:13:31.592Z,912
2016-10-08T07:14:31.569Z,1028
2016-10-08T07:15:32.002Z,1000
2016-10-08T07:16:31.545Z,888
2016-10-08T07:17:31.520Z,752
2016-10-08T07:18:31.528Z,920
2016-10-08T07:19:31.512Z,1112
2016-10-08T07:20:31.496Z,1736
2016-10-08T07:21:31.475Z,2648
2016-10-08T07:22:31.506Z,2048
2016-10-08T07:23:31.458Z,2200
2016-10-08T07:24:31.452Z,2944
2016-10-08T07:25:31.430Z,3660
2016-10-08T07:26:31.424Z,3044
2016-10-08T07:27:31.405Z,4064
2016-10-08T07:28:31.407Z,3188
2016-10-08T07:29:31.380Z,2244
2016-10-08T07:30:31.365Z,2464
2016-10-08T07:31:31.353Z,2888
2016-10-08T07:32:31.354Z,2992
2016-10-08T07:33:31.329Z,3040
2016-10-08T07:34:31.537Z,2244
2016-10-08T07:35:31.298Z,1972
2016-10-08T07:36:31.302Z,1836
2016-10-08T07:37:31.282Z,2228
2016-10-08T07:38:31.262Z,2172
2016-10-08T07:39:31.256Z,1928
2016-10-08T07:40:31.264Z,2104
2016-10-08T07:41:31.233Z,1732
2016-10-08T07:42:31.234Z,1036
2016-10-08T07:43:31.220Z,992
2016-10-08T07:44:31.201Z,816
2016-10-08T07:45:31.183Z,720
2016-10-08T07:46:31.175Z,640
2016-10-08T07:47:31.154Z,664
2016-10-08T07:48:31.163Z,656
2016-10-08T07:49:31.139Z,596
2016-10-08T07:50:31.127Z,692
2016-10-08T07:51:31.434Z,864
2016-10-08T07:52:31.100Z,1004
2016-10-08T07:53:31.123Z,1408
2016-10-08T07:54:31.070Z,1576
2016-10-08T07:55:31.071Z,2104
2016-10-08T07:56:31.046Z,1868
2016-10-08T07:57:31.028Z,2032
2016-10-08T07:58:31.028Z,2072
2016-10-08T07:59:31.032Z,1824
2016-10-08T08:00:31.001Z,2000
2016-10-08T08:01:31.000Z,2000
2016-10-08T08:02:30.975Z,2540
2016-10-08T08:03:30.966Z,2872
2016-10-08T08:04:30.961Z,2948
2016-10-08T08:05:31.285Z,2652
2016-10-08T08:06:30.927Z,2272
2016-10-08T08:07:30.913Z,2316
2016-10-08T08:08:30.915Z,2440
2016-10-08T08:09:30.892Z,2632
2016-10-08T08:10:30.878Z,2868
2016-10-08T08:11:30.852Z,2332
2016-10-08T08:12:30.856Z,2216
2016-10-08T08:13:30.843Z,2168
2016-10-08T08:14:30.825Z,2020
2016-10-08T08:15:30.800Z,2092
2016-10-08T08:16:30.805Z,2288
2016-10-08T08:17:30.854Z,2828
2016-10-08T08:18:30.777Z,2932
2016-10-08T08:19:30.764Z,3124
2016-10-08T08:20:30.766Z,3520
2016-10-08T08:21:30.748Z,4064
2016-10-08T08:22:30.728Z,3976
2016-10-08T08:23:30.718Z,3876
2016-10-08T08:24:30.698Z,4776
2016-10-08T08:25:30.688Z,4408
2016-10-08T08:26:31.001Z,4340
2016-10-08T08:27:30.680Z,5036
2016-10-08T08:28:30.661Z,5812
2016-10-08T08:29:30.655Z,5276
2016-10-08T08:30:30.630Z,4584
2016-10-08T08:31:30.943Z,3824
2016-10-08T08:32:30.609Z,3188
2016-10-08T08:33:30.590Z,4104
2016-10-08T08:34:30.577Z,3868
2016-10-08T08:35:30.576Z,4964
2016-10-08T08:36:30.569Z,5316
2016-10-08T08:37:30.547Z,5400
2016-10-08T08:38:30.543Z,6664
2016-10-08T08:39:30.524Z,5392
2016-10-08T08:40:30.504Z,3932
2016-10-08T08:41:30.502Z,2736
2016-10-08T08:42:30.484Z,2948
2016-10-08T08:43:30.484Z,2824
2016-10-08T08:44:30.503Z,2904
2016-10-08T08:45:30.499Z,3732
2016-10-08T08:46:30.523Z,3736
2016-10-08T08:47:30.533Z,4000
2016-10-08T08:48:30.430Z,5000
2016-10-08T08:49:30.425Z,4844
2016-10-08T08:50:30.432Z,5352
2016-10-08T08:51:30.437Z,5884
2016-10-08T08:52:30.458Z,5096
2016-10-08T08:53:30.470Z,4584
2016-10-08T08:54:30.405Z,5336
2016-10-08T08:55:30.406Z,6128
2016-10-08T08:56:30.416Z,6528
2016-10-08T08:57:30.443Z,7092
2016-10-08T08:58:30.435Z,6916
2016-10-08T08:59:30.432Z,5812
2016-10-08T09:00:30.564Z,5496
2016-10-08T09:01:30.355Z,5168
2016-10-08T09:02:30.362Z,4664
2016-10-08T09:03:30.358Z,4340
2016-10-08T09:04:30.370Z,3484
2016-10-08T09:05:30.374Z,3024
2016-10-08T09:06:30.394Z,2552
2016-10-08T09:07:30.366Z,2656
2016-10-08T09:08:30.324Z,3596
2016-10-08T09:09:30.333Z,2916
2016-10-08T09:10:30.483Z,2836
2016-10-08T09:11:30.481Z,3652
2016-10-08T09:12:30.409Z,4496
2016-10-08T09:13:30.353Z,6724
2016-10-08T09:14:30.261Z,7688
2016-10-08T09:15:30.270Z,7568
2016-10-08T09:16:30.281Z,7332
2016-10-08T09:17:30.279Z,7048
2016-10-08T09:18:30.322Z,7112
2016-10-08T09:19:30.294Z,6976
2016-10-08T09:20:30.306Z,6424
2016-10-08T09:21:30.336Z,6712
2016-10-08T09:22:30.178Z,6804
2016-10-08T09:23:30.163Z,6740
2016-10-08T09:24:30.151Z,6280
2016-10-08T09:25:30.147Z,5616
2016-10-08T09:26:30.139Z,5144
2016-10-08T09:27:30.250Z,5012
2016-10-08T09:28:30.242Z,4480
2016-10-08T09:29:30.180Z,3608
2016-10-08T09:30:30.135Z,3048
2016-10-08T09:31:30.145Z,2948
2016-10-08T09:32:30.140Z,2528
2016-10-08T09:33:30.110Z,2732
2016-10-08T09:34:30.098Z,3008
2016-10-08T09:35:29.976Z,2912
2016-10-08T09:36:29.958Z,2800
2016-10-08T09:37:29.957Z,2440
2016-10-08T09:38:29.964Z,2720
2016-10-08T09:39:29.942Z,2364
2016-10-08T09:40:29.937Z,2140
2016-10-08T09:41:29.935Z,1964
2016-10-08T09:42:29.808Z,2268
2016-10-08T09:43:29.802Z,2440
2016-10-08T09:44:29.792Z,2828
2016-10-08T09:45:29.776Z,3820
2016-10-08T09:46:29.768Z,3932
2016-10-08T09:47:29.755Z,4300
2016-10-08T09:48:29.737Z,4960
2016-10-08T09:49:29.732Z,4556
2016-10-08T09:50:29.704Z,4248
2016-10-08T09:51:29.705Z,4428
2016-10-08T09:52:29.690Z,4184
2016-10-08T09:53:29.734Z,4220
2016-10-08T09:54:29.675Z,4320
2016-10-08T09:55:29.666Z,4456
2016-10-08T09:56:29.647Z,4720
2016-10-08T09:57:29.637Z,4848
2016-10-08T09:58:29.619Z,4956
2016-10-08T09:59:29.614Z,4832
2016-10-08T10:00:29.614Z,4372
2016-10-08T10:01:29.597Z,4036
2016-10-08T10:02:29.579Z,4316
2016-10-08T10:03:29.573Z,4256
2016-10-08T10:04:29.572Z,4148
2016-10-08T10:05:30.088Z,3680
2016-10-08T10:06:29.550Z,3284
2016-10-08T10:07:29.523Z,2940
2016-10-08T10:08:29.566Z,3012
2016-10-08T10:09:29.525Z,3204
2016-10-08T10:10:29.490Z,3936
2016-10-08T10:11:29.498Z,3948
2016-10-08T10:12:29.475Z,3520
2016-10-08T10:13:29.516Z,2960
2016-10-08T10:14:29.769Z,2792
2016-10-08T10:15:29.459Z,2808
2016-10-08T10:16:29.431Z,2888
2016-10-08T10:17:29.434Z,2924
2016-10-08T10:18:29.461Z,3324
2016-10-08T10:19:29.395Z,3644
2016-10-08T10:20:29.394Z,4092
2016-10-08T10:21:29.385Z,4192
2016-10-08T10:22:29.366Z,4100
2016-10-08T10:23:29.367Z,4172
2016-10-08T10:24:29.354Z,4872
2016-10-08T10:25:29.337Z,5056
2016-10-08T10:26:29.340Z,5012
2016-10-08T10:27:29.902Z,5124
2016-10-08T10:28:29.307Z,4652
2016-10-08T10:29:29.310Z,4336
2016-10-08T10:30:29.288Z,3364
2016-10-08T10:31:29.374Z,2732
2016-10-08T10:32:29.265Z,2388
2016-10-08T10:33:29.249Z,2280
2016-10-08T10:34:29.246Z,2292
2016-10-08T10:35:29.233Z,2656
2016-10-08T10:36:29.265Z,3080
2016-10-08T10:37:29.208Z,3144
2016-10-08T10:38:29.202Z,3072
2016-10-08T10:39:29.185Z,3368
2016-10-08T10:40:29.187Z,3744
2016-10-08T10:41:29.160Z,4216
2016-10-08T10:42:29.157Z,4264
2016-10-08T10:43:29.147Z,4000
2016-10-08T10:44:29.141Z,3864
2016-10-08T10:45:29.126Z,3924
2016-10-08T10:46:29.133Z,3512
2016-10-08T10:47:29.098Z,3376
2016-10-08T10:48:29.094Z,3344
2016-10-08T10:49:29.087Z,3060
2016-10-08T10:50:29.085Z,2768
2016-10-08T10:51:29.073Z,2328
2016-10-08T10:52:29.434Z,2180
2016-10-08T10:53:29.035Z,2544
2016-10-08T10:54:29.034Z,2944
2016-10-08T10:55:29.031Z,3292
2016-10-08T10:56:29.009Z,3656
2016-10-08T10:57:29.003Z,3484
2016-10-08T10:58:29.312Z,3296
2016-10-08T10:59:28.974Z,2948
2016-10-08T11:00:28.968Z,2576
2016-10-08T11:01:28.958Z,2324
2016-10-08T11:02:28.944Z,2448
2016-10-08T11:03:28.947Z,2260
2016-10-08T11:04:29.285Z,2220
2016-10-08T11:05:28.913Z,2548
2016-10-08T11:06:28.899Z,2608
2016-10-08T11:07:28.879Z,2748
2016-10-08T11:08:28.888Z,3380
2016-10-08T11:09:28.882Z,3508
2016-10-08T11:10:28.857Z,3604
2016-10-08T11:11:28.845Z,3384
2016-10-08T11:12:28.828Z,3924
2016-10-08T11:13:28.825Z,3872
2016-10-08T11:14:28.812Z,3952
2016-10-08T11:15:28.821Z,4052
2016-10-08T11:16:28.795Z,3528
2016-10-08T11:17:28.782Z,2924
2016-10-08T11:18:28.771Z,3552
2016-10-08T11:19:28.760Z,3652
2016-10-08T11:20:28.752Z,3808
2016-10-08T11:21:28.733Z,4776
2016-10-08T11:22:28.727Z,4448
2016-10-08T11:23:28.708Z,4060
2016-10-08T11:24:28.703Z,3808
2016-10-08T11:25:28.701Z,3528
2016-10-08T11:26:28.681Z,3180
2016-10-08T11:27:28.666Z,3364
2016-10-08T11:28:28.659Z,3900
2016-10-08T11:29:28.648Z,4176
2016-10-08T11:30:28.634Z,4084
2016-10-08T11:31:28.629Z,4248
2016-10-08T11:32:28.614Z,4408
2016-10-08T11:33:28.608Z,4412
2016-10-08T11:34:28.594Z,4664
2016-10-08T11:35:28.585Z,4964
2016-10-08T11:36:28.575Z,5136
2016-10-08T11:37:28.563Z,5208
2016-10-08T11:38:28.549Z,5076
2016-10-08T11:39:28.539Z,4724
2016-10-08T11:40:28.532Z,4816
2016-10-08T11:41:28.528Z,5200
2016-10-08T11:42:28.507Z,5412
2016-10-08T11:43:28.503Z,5972
2016-10-08T11:44:28.484Z,6980
2016-10-08T11:45:28.484Z,7812
2016-10-08T11:46:28.468Z,8052
2016-10-08T11:47:28.454Z,7244
2016-10-08T11:48:28.450Z,6676
2016-10-08T11:49:28.470Z,6516
2016-10-08T11:50:28.424Z,6064
2016-10-08T11:51:28.409Z,5208
2016-10-08T11:52:28.401Z,4688
2016-10-08T11:53:28.398Z,4852
2016-10-08T11:54:28.451Z,5048
2016-10-08T11:55:28.457Z,4724
2016-10-08T11:56:28.362Z,4084
2016-10-08T11:57:28.350Z,3928
2016-10-08T11:58:28.344Z,4028
2016-10-08T11:59:28.321Z,3548
2016-10-08T12:00:28.328Z,3024
2016-10-08T12:01:28.299Z,3176
2016-10-08T12:02:28.297Z,3124
2016-10-08T12:03:28.277Z,3848
2016-10-08T12:04:28.280Z,3724
2016-10-08T12:05:28.262Z,3200
2016-10-08T12:06:28.254Z,2780
2016-10-08T12:07:28.238Z,2764
2016-10-08T12:08:28.228Z,2384
2016-10-08T12:09:28.216Z,2028
2016-10-08T12:10:28.211Z,2044
2016-10-08T12:11:28.210Z,1960
2016-10-08T12:12:28.194Z,1728
2016-10-08T12:13:28.171Z,1880
2016-10-08T12:14:28.176Z,1920
2016-10-08T12:15:28.158Z,2036
2016-10-08T12:16:28.146Z,2060
2016-10-08T12:17:28.142Z,2160
2016-10-08T12:18:28.153Z,2628
2016-10-08T12:19:28.163Z,3444
2016-10-08T12:20:28.176Z,3892
2016-10-08T12:21:28.177Z,4068
2016-10-08T12:22:28.184Z,4048
2016-10-08T12:23:28.159Z,3932
2016-10-08T12:24:28.098Z,3784
2016-10-08T12:25:28.095Z,3880
2016-10-08T12:26:28.112Z,4044
2016-10-08T12:27:28.117Z,4032
2016-10-08T12:28:28.126Z,4032
2016-10-08T12:29:28.076Z,4644
2016-10-08T12:30:28.075Z,4892
2016-10-08T12:31:28.078Z,5408
2016-10-08T12:32:28.087Z,5176
2016-10-08T12:33:28.094Z,5272
2016-10-08T12:34:28.110Z,5464
2016-10-08T12:35:28.263Z,5252
2016-10-08T12:36:28.114Z,5440
2016-10-08T12:37:28.025Z,5376
2016-10-08T12:38:28.034Z,5144
2016-10-08T12:39:28.034Z,4992
2016-10-08T12:40:28.043Z,4536
2016-10-08T12:41:28.051Z,4636
2016-10-08T12:42:28.059Z,4528
2016-10-08T12:43:27.927Z,3832
2016-10-08T12:44:27.926Z,3712
2016-10-08T12:45:27.939Z,3920
2016-10-08T12:46:27.944Z,3536
2016-10-08T12:47:27.957Z,3460
2016-10-08T12:48:27.961Z,3296
2016-10-08T12:49:28.104Z,2936
2016-10-08T12:50:28.009Z,2460
2016-10-08T12:51:27.883Z,2504
2016-10-08T12:52:27.891Z,2748
2016-10-08T12:53:27.889Z,2132
2016-10-08T12:54:27.896Z,1876
2016-10-08T12:55:27.905Z,2020
2016-10-08T12:56:27.916Z,2168
2016-10-08T12:57:27.923Z,2036
2016-10-08T12:58:27.913Z,1764
2016-10-08T12:59:27.763Z,1812
2016-10-08T13:00:27.743Z,1932
2016-10-08T13:01:27.739Z,1884
2016-10-08T13:02:27.719Z,2564
2016-10-08T13:03:27.859Z,3020
2016-10-08T13:04:27.701Z,3124
2016-10-08T13:05:27.882Z,3052
2016-10-08T13:06:27.699Z,2908
2016-10-08T13:07:28.024Z,2940
2016-10-08T13:08:27.692Z,4108
2016-10-08T13:09:27.726Z,4416
2016-10-08T13:10:27.666Z,4144
2016-10-08T13:11:27.671Z,4052
2016-10-08T13:12:27.541Z,4856
2016-10-08T13:13:42.435Z,4680
2016-10-08T13:14:27.542Z,4464
2016-10-08T13:15:27.654Z,4756
2016-10-08T13:16:27.504Z,4432
2016-10-08T13:17:28.002Z,3776
2016-10-08T13:18:27.474Z,3584
2016-10-08T13:19:27.473Z,4256
2016-10-08T13:20:27.472Z,4616
2016-10-08T13:21:27.451Z,4672
2016-10-08T13:22:27.890Z,4824
2016-10-08T13:23:27.425Z,4800
2016-10-08T13:24:27.411Z,4736
2016-10-08T13:25:27.404Z,4728
2016-10-08T13:26:27.401Z,4868
2016-10-08T13:27:27.411Z,4292
2016-10-08T13:28:27.364Z,3868
2016-10-08T13:29:27.846Z,3512
2016-10-08T13:30:27.347Z,2632
2016-10-08T13:31:27.352Z,2284
2016-10-08T13:32:27.326Z,2812
2016-10-08T13:33:27.321Z,3536
2016-10-08T13:34:27.316Z,3308
2016-10-08T13:35:27.299Z,2852
2016-10-08T13:36:27.282Z,2528
2016-10-08T13:37:27.279Z,2120
2016-10-08T13:38:27.261Z,2452
2016-10-08T13:39:27.284Z,3228
2016-10-08T13:40:27.262Z,3616
2016-10-08T13:41:27.230Z,3608
2016-10-08T13:42:27.218Z,3868
2016-10-08T13:43:27.415Z,3660
2016-10-08T13:44:27.211Z,2672
2016-10-08T13:45:27.213Z,2000
2016-10-08T13:46:27.175Z,1652
2016-10-08T13:47:27.173Z,1628
2016-10-08T13:48:27.165Z,2292
2016-10-08T13:49:27.155Z,2380
2016-10-08T13:50:27.128Z,2992
2016-10-08T13:51:27.133Z,3868
2016-10-08T13:52:27.122Z,4448
2016-10-08T13:53:27.127Z,4820
2016-10-08T13:54:27.099Z,6156